To NAV CANADA Home Page Login to a new session Search on AWWS site Feedback and Comments Disclaimer Vers la page française équivalente Tips FAQ What's new on the site To the Forecasts and Observations / NOTAM section To "File a Flight Plan" website Publications and other links Update of the User's profile FIC Telephone Numbers My Weather Data Folder Route Weather Data Regional Weather Data Local Weather Data To the Forecasts and Observations / NOTAM section
Request Generated 09/28/2016 at 03:24:06 UTC . Weather information available at that time is displayed.

METAR/TAF

FORT CHIPEWYAN/AB    (show WxCam)

METAR CYPY 280300Z AUTO 28020G25KT 9SM BKN065 OVC081 12/01 A2988 RMK
PRESRR SLP129=
METAR CYPY 280200Z AUTO 26019G24KT 9SM SCT095 13/00 A2984 RMK SLP114=
METAR CYPY 280100Z AUTO 24015G21KT 9SM BKN100 13/M01 A2982 RMK SLP107
DENSITY ALT 800FT=

*** REMARK        : Forecast period has ended; this was the last TAF issued
*** REMARQUE : La période de prévision est échue; ceci était le dernier TAF qui a été émis
TAF CYPY 271739Z 2718/2722 26020G30KT P6SM SCT020 BKN080 TEMPO
2718/2720 P6SM -RA BKN020 OVC080
FM272000 26020G30KT P6SM SCT060 TEMPO 2720/2722 BKN060
RMK FCST BASED ON AUTO OBS. NXT FCST WILL BE ISSUED AT 281245Z=
Your time UTC time
Weather data provided by Environment Canada and NAV CANADA